createdAt,value
2023-05-01T00:02:52.816Z,65.77
2023-05-01T00:06:21.615Z,66.11
2023-05-01T00:09:57.145Z,66.28
2023-05-01T00:13:27.272Z,66.71
2023-05-01T00:16:40.808Z,66.84
2023-05-01T00:24:31.934Z,67.96
2023-05-01T00:28:10.949Z,68.23
2023-05-01T00:31:28.775Z,68.13
2023-05-01T00:35:08.465Z,68.40
2023-05-01T00:38:35.129Z,68.11
2023-05-01T00:41:40.091Z,68.58
2023-05-01T00:44:50.704Z,68.53
2023-05-01T00:48:32.640Z,68.42
2023-05-01T00:52:06.982Z,67.56
2023-05-01T00:55:17.785Z,67.97
2023-05-01T01:02:44.601Z,67.85
2023-05-01T01:06:42.892Z,67.58
2023-05-01T01:10:43.205Z,67.37
2023-05-01T01:14:23.620Z,67.27
2023-05-01T01:18:24.419Z,66.71
2023-05-01T01:22:00.865Z,67.05
2023-05-01T01:25:48.530Z,66.42
2023-05-01T01:29:30.196Z,65.97
2023-05-01T01:33:24.479Z,65.57
2023-05-01T01:37:33.666Z,65.52
2023-05-01T01:41:20.247Z,65.64
2023-05-01T01:45:15.427Z,66.00
2023-05-01T01:52:38.081Z,65.01
2023-05-01T01:56:08.296Z,64.89
2023-05-01T02:03:29.437Z,63.96
2023-05-01T02:06:51.036Z,63.82
2023-05-01T02:14:52.151Z,63.48
2023-05-01T02:18:24.984Z,63.32
2023-05-01T02:22:09.763Z,63.44
2023-05-01T02:25:30.245Z,63.04
2023-05-01T02:29:02.201Z,62.73
2023-05-01T02:33:05.504Z,63.10
2023-05-01T02:36:34.569Z,63.21
2023-05-01T02:43:59.231Z,63.59
2023-05-01T02:51:15.301Z,63.77
2023-05-01T02:54:55.932Z,64.44
2023-05-01T03:05:58.295Z,63.82
2023-05-01T03:09:49.736Z,63.67
2023-05-01T03:13:15.342Z,63.61
2023-05-01T03:20:08.512Z,63.40
2023-05-01T03:23:48.555Z,63.03
2023-05-01T03:27:09.882Z,62.17
2023-05-01T03:30:44.389Z,62.52
2023-05-01T03:34:09.155Z,62.88
2023-05-01T03:37:27.112Z,62.85
2023-05-01T03:44:41.686Z,62.18
2023-05-01T03:47:57.520Z,61.93
2023-05-01T03:54:49.006Z,62.37
2023-05-01T04:01:41.777Z,61.73
2023-05-01T04:04:54.411Z,61.54
2023-05-01T04:11:38.275Z,61.74
2023-05-01T04:15:09.699Z,61.17
2023-05-01T04:18:33.814Z,60.85
2023-05-01T04:22:01.665Z,60.59
2023-05-01T04:25:34.546Z,59.98
2023-05-01T04:28:56.848Z,59.80
2023-05-01T04:32:25.478Z,59.22
2023-05-01T04:36:00.736Z,59.58
2023-05-01T04:39:46.946Z,58.38
2023-05-01T04:46:43.281Z,57.04
2023-05-01T04:50:06.306Z,57.07
2023-05-01T04:53:42.135Z,56.52
2023-05-01T04:57:29.510Z,55.63
2023-05-01T05:00:59.256Z,55.93
2023-05-01T05:04:15.036Z,55.04
2023-05-01T05:07:44.020Z,55.10
2023-05-01T05:11:25.782Z,54.13
2023-05-01T05:14:36.803Z,53.26
2023-05-01T05:18:19.534Z,52.63
2023-05-01T05:21:48.211Z,52.69
2023-05-01T05:25:06.329Z,52.17
2023-05-01T05:28:46.417Z,51.55
2023-05-01T05:32:19.119Z,50.87
2023-05-01T05:35:34.652Z,50.72
2023-05-01T05:39:23.708Z,49.69
2023-05-01T05:42:31.327Z,48.96
2023-05-01T05:45:52.810Z,49.08
2023-05-01T05:49:07.711Z,48.15
2023-05-01T05:52:24.788Z,47.20
2023-05-01T05:55:59.661Z,46.32
2023-05-01T05:59:19.708Z,45.14
2023-05-01T06:02:50.155Z,44.68
2023-05-01T06:06:02.000Z,43.81
2023-05-01T06:09:11.868Z,44.72
2023-05-01T06:16:01.773Z,42.86
2023-05-01T06:19:17.150Z,42.23
2023-05-01T06:22:24.786Z,41.47
2023-05-01T06:25:41.997Z,39.80
2023-05-01T06:29:07.405Z,39.13
2023-05-01T06:32:23.730Z,38.08
2023-05-01T06:35:48.087Z,36.39
2023-05-01T06:39:02.572Z,36.32
2023-05-01T06:42:11.403Z,35.95
2023-05-01T06:45:27.569Z,37.29
2023-05-01T06:48:37.038Z,38.02
2023-05-01T06:51:46.399Z,38.87
2023-05-01T06:54:54.301Z,38.66
2023-05-01T06:58:12.570Z,39.02
2023-05-01T07:01:34.726Z,39.37
2023-05-01T07:04:50.464Z,39.16
2023-05-01T07:08:01.942Z,38.45
2023-05-01T07:11:22.315Z,37.92
2023-05-01T07:14:32.896Z,37.27
2023-05-01T07:17:47.406Z,37.20
2023-05-01T07:21:01.664Z,37.36
2023-05-01T07:24:18.068Z,37.84
2023-05-01T07:27:25.683Z,37.42
2023-05-01T07:30:37.720Z,37.10
2023-05-01T07:33:45.862Z,35.95
2023-05-01T07:37:14.679Z,36.86
2023-05-01T07:40:33.812Z,35.85
2023-05-01T07:43:39.622Z,34.10
2023-05-01T07:46:51.858Z,33.18
2023-05-01T07:50:07.319Z,31.78
2023-05-01T07:53:12.880Z,31.69
2023-05-01T07:56:31.967Z,30.57
2023-05-01T07:59:57.070Z,28.56
2023-05-01T08:03:16.732Z,27.14
2023-05-01T08:06:26.570Z,25.83
2023-05-01T08:09:37.624Z,25.12
2023-05-01T08:12:46.418Z,23.89
2023-05-01T08:16:12.519Z,23.33
2023-05-01T08:19:16.082Z,23.49
2023-05-01T08:22:31.929Z,23.10
2023-05-01T08:25:40.388Z,22.44
2023-05-01T08:28:51.207Z,22.62
2023-05-01T08:31:58.971Z,20.89
2023-05-01T08:35:09.684Z,21.71
2023-05-01T08:38:42.461Z,20.27
2023-05-01T08:41:48.779Z,20.56
2023-05-01T08:45:06.937Z,20.25
2023-05-01T08:48:17.564Z,20.52
2023-05-01T08:51:34.428Z,19.51
2023-05-01T08:58:32.754Z,18.19
2023-05-01T09:01:52.223Z,20.99
2023-05-01T09:05:02.999Z,18.07
2023-05-01T09:08:25.495Z,18.84
2023-05-01T09:11:47.573Z,17.73
2023-05-01T09:14:57.539Z,19.20
2023-05-01T09:18:16.071Z,18.57
2023-05-01T09:22:03.607Z,19.05
2023-05-01T09:25:19.874Z,17.92
2023-05-01T09:28:51.506Z,17.06
2023-05-01T09:32:32.518Z,17.86
2023-05-01T09:35:58.407Z,17.95
2023-05-01T09:39:16.464Z,17.79
2023-05-01T09:42:27.755Z,18.48
2023-05-01T09:46:12.978Z,17.54
2023-05-01T09:49:50.718Z,16.86
2023-05-01T09:53:22.429Z,15.68
2023-05-01T09:56:44.415Z,15.64
2023-05-01T10:03:40.593Z,14.04
2023-05-01T10:06:51.587Z,15.33
2023-05-01T10:11:14.939Z,16.19
2023-05-01T10:15:14.012Z,16.26
2023-05-01T10:18:31.515Z,14.38
2023-05-01T10:21:43.664Z,17.08
2023-05-01T10:25:05.999Z,16.64
2023-05-01T10:28:32.785Z,15.65
2023-05-01T10:31:38.192Z,16.35
2023-05-01T10:35:13.859Z,15.30
2023-05-01T10:38:36.715Z,15.59
2023-05-01T10:42:12.555Z,16.62
2023-05-01T10:45:48.183Z,17.22
2023-05-01T10:48:50.566Z,15.74
2023-05-01T10:55:54.134Z,14.46
2023-05-01T11:02:49.952Z,14.06
2023-05-01T11:06:17.982Z,13.78
2023-05-01T11:10:09.082Z,12.77
2023-05-01T11:13:34.099Z,12.03
2023-05-01T11:16:55.365Z,11.92
2023-05-01T11:20:54.138Z,13.35
2023-05-01T11:24:16.772Z,12.96
2023-05-01T11:27:31.494Z,13.96
2023-05-01T11:31:00.188Z,11.67
2023-05-01T11:34:18.931Z,12.04
2023-05-01T11:37:53.949Z,12.23
2023-05-01T11:41:23.778Z,12.37
2023-05-01T11:45:07.330Z,13.09
2023-05-01T11:48:36.323Z,12.82
2023-05-01T11:52:16.357Z,12.75
2023-05-01T11:55:48.598Z,13.33
2023-05-01T11:59:25.240Z,13.11
2023-05-01T12:02:51.517Z,12.61
2023-05-01T12:06:19.426Z,12.06
2023-05-01T12:09:48.177Z,11.94
2023-05-01T12:13:19.272Z,12.98
2023-05-01T12:16:31.422Z,11.62
2023-05-01T12:19:56.759Z,15.38
2023-05-01T12:23:13.304Z,14.36
2023-05-01T12:30:16.034Z,13.48
2023-05-01T12:33:41.918Z,12.24
2023-05-01T12:36:54.901Z,13.18
2023-05-01T12:40:17.924Z,14.01
2023-05-01T12:43:42.414Z,12.29
2023-05-01T12:47:12.194Z,12.58
2023-05-01T12:50:17.350Z,14.35
2023-05-01T12:53:32.648Z,13.05
2023-05-01T12:56:50.917Z,12.82
2023-05-01T13:00:22.822Z,13.05
2023-05-01T13:03:44.118Z,13.37
2023-05-01T13:07:16.900Z,12.48
2023-05-01T13:10:51.860Z,12.55
2023-05-01T13:14:33.602Z,11.98
2023-05-01T13:17:46.160Z,11.50
2023-05-01T13:21:07.875Z,12.61
2023-05-01T13:24:17.912Z,13.15
2023-05-01T13:27:32.842Z,14.80
2023-05-01T13:34:13.576Z,12.38
2023-05-01T13:37:26.018Z,12.85
2023-05-01T13:40:40.528Z,12.37
2023-05-01T13:44:02.035Z,12.75
2023-05-01T13:47:20.538Z,12.37
2023-05-01T13:50:39.803Z,12.33
2023-05-01T13:53:55.913Z,13.23
2023-05-01T13:57:09.847Z,14.32
2023-05-01T14:00:57.090Z,13.93
2023-05-01T14:04:12.700Z,14.29
2023-05-01T14:07:24.253Z,15.10
2023-05-01T14:10:34.519Z,14.92
2023-05-01T14:14:06.322Z,14.55
2023-05-01T14:17:19.325Z,14.23
2023-05-01T14:20:31.397Z,14.30
2023-05-01T14:23:50.653Z,13.88
2023-05-01T14:27:02.981Z,14.56
2023-05-01T14:30:52.580Z,13.97
2023-05-01T14:34:03.888Z,14.09
2023-05-01T14:37:39.447Z,14.23
2023-05-01T14:41:00.474Z,13.66
2023-05-01T14:44:12.728Z,14.37
2023-05-01T14:47:38.874Z,14.64
2023-05-01T14:50:48.874Z,15.98
2023-05-01T14:54:22.690Z,15.62
2023-05-01T14:57:39.820Z,16.36
2023-05-01T15:00:55.808Z,16.08
2023-05-01T15:04:29.695Z,16.00
2023-05-01T15:08:01.283Z,16.44
2023-05-01T15:11:18.297Z,16.51
2023-05-01T15:14:44.805Z,17.44
2023-05-01T15:17:56.429Z,18.29
2023-05-01T15:21:06.578Z,18.70
2023-05-01T15:24:19.638Z,19.32
2023-05-01T15:27:38.954Z,19.86
2023-05-01T15:30:56.463Z,20.47
2023-05-01T15:34:14.011Z,20.87
2023-05-01T15:41:14.551Z,21.08
2023-05-01T15:44:20.640Z,21.46
2023-05-01T15:47:49.576Z,22.27
2023-05-01T15:50:59.680Z,22.24
2023-05-01T15:54:24.245Z,22.34
2023-05-01T15:58:08.482Z,22.42
2023-05-01T16:01:19.731Z,23.26
2023-05-01T16:08:21.134Z,24.31
2023-05-01T16:11:37.070Z,24.16
2023-05-01T16:15:03.866Z,24.66
2023-05-01T16:18:25.795Z,25.37
2023-05-01T16:21:41.527Z,25.08
2023-05-01T16:24:57.492Z,25.17
2023-05-01T16:28:24.306Z,25.17
2023-05-01T16:32:14.158Z,25.31
2023-05-01T16:35:38.246Z,25.34
2023-05-01T16:38:59.986Z,25.68
2023-05-01T16:42:29.246Z,26.13
2023-05-01T16:45:39.712Z,26.45
2023-05-01T16:48:56.514Z,27.34
2023-05-01T16:52:19.061Z,28.04
2023-05-01T16:55:48.949Z,28.33
2023-05-01T16:59:02.053Z,28.64
2023-05-01T17:02:23.674Z,29.43
2023-05-01T17:05:40.563Z,29.44
2023-05-01T17:08:47.328Z,29.84
2023-05-01T17:12:06.547Z,30.22
2023-05-01T17:15:29.924Z,31.43
2023-05-01T17:18:53.222Z,31.53
2023-05-01T17:25:33.846Z,33.13
2023-05-01T17:28:46.401Z,33.71
2023-05-01T17:32:18.155Z,34.78
2023-05-01T17:35:44.152Z,34.96
2023-05-01T17:42:34.100Z,36.31
2023-05-01T17:45:48.849Z,36.94
2023-05-01T17:49:17.430Z,37.73
2023-05-01T17:52:27.363Z,38.56
2023-05-01T17:56:07.606Z,41.43
2023-05-01T17:59:30.453Z,40.56
2023-05-01T18:06:25.118Z,42.17
2023-05-01T18:09:50.295Z,42.43
2023-05-01T18:13:19.513Z,42.99
2023-05-01T18:16:26.007Z,43.78
2023-05-01T18:19:49.936Z,44.15
2023-05-01T18:23:17.394Z,45.40
2023-05-01T18:26:38.272Z,45.53
2023-05-01T18:29:58.558Z,45.78
2023-05-01T18:33:16.978Z,46.63
2023-05-01T18:36:48.824Z,48.13
2023-05-01T18:40:18.006Z,48.18
2023-05-01T18:43:41.351Z,47.73
2023-05-01T18:54:04.719Z,48.38
2023-05-01T18:57:31.266Z,49.02
2023-05-01T19:00:41.782Z,48.94
2023-05-01T19:04:11.941Z,49.11
2023-05-01T19:07:26.631Z,49.63
2023-05-01T19:10:54.327Z,49.71
2023-05-01T19:14:20.890Z,49.87
2023-05-01T19:17:27.244Z,50.33
2023-05-01T19:20:56.420Z,50.64
2023-05-01T19:24:29.284Z,50.45
2023-05-01T19:27:43.918Z,50.60
2023-05-01T19:30:51.453Z,50.91
2023-05-01T19:34:10.055Z,51.39
2023-05-01T19:37:34.627Z,53.95
2023-05-01T19:40:55.330Z,52.43
2023-05-01T19:44:08.158Z,53.07
2023-05-01T19:47:13.944Z,53.04
2023-05-01T19:50:38.589Z,53.37
2023-05-01T19:54:04.493Z,53.30
2023-05-01T19:57:08.664Z,53.58
2023-05-01T20:00:23.151Z,55.16
2023-05-01T20:03:32.871Z,54.83
2023-05-01T20:07:09.194Z,54.94
2023-05-01T20:13:55.666Z,55.43
2023-05-01T20:17:02.645Z,54.57
2023-05-01T20:20:34.492Z,54.07
2023-05-01T20:23:58.429Z,53.92
2023-05-01T20:27:27.860Z,54.10
2023-05-01T20:30:51.924Z,55.44
2023-05-01T20:34:11.838Z,56.78
2023-05-01T20:37:17.728Z,56.26
2023-05-01T20:40:47.998Z,56.44
2023-05-01T20:43:59.785Z,57.76
2023-05-01T20:47:30.882Z,57.65
2023-05-01T20:51:01.546Z,58.02
2023-05-01T20:54:23.230Z,58.33
2023-05-01T20:57:43.807Z,58.53
2023-05-01T21:00:59.116Z,58.60
2023-05-01T21:04:08.311Z,59.16
2023-05-01T21:07:36.141Z,58.80
2023-05-01T21:11:13.978Z,58.66
2023-05-01T21:14:42.701Z,58.94
2023-05-01T21:21:32.385Z,59.22
2023-05-01T21:25:10.812Z,59.41
2023-05-01T21:28:29.639Z,60.52
2023-05-01T21:32:11.537Z,59.45
2023-05-01T21:35:35.076Z,60.12
2023-05-01T21:39:17.582Z,60.16
2023-05-01T21:42:42.124Z,60.26
2023-05-01T21:46:08.373Z,60.54
2023-05-01T21:49:25.444Z,60.91
2023-05-01T21:56:34.763Z,61.84
2023-05-01T21:59:52.414Z,62.47
2023-05-01T22:07:06.922Z,62.46
2023-05-01T22:10:50.179Z,62.44
2023-05-01T22:14:16.252Z,63.14
2023-05-01T22:17:28.364Z,63.22
2023-05-01T22:21:09.723Z,62.86
2023-05-01T22:24:34.828Z,63.06
2023-05-01T22:28:15.349Z,63.21
2023-05-01T22:31:37.374Z,62.88
2023-05-01T22:34:52.441Z,61.83
2023-05-01T22:38:21.626Z,61.82
2023-05-01T22:41:50.848Z,61.48
2023-05-01T22:49:41.935Z,61.31
2023-05-01T22:53:04.696Z,61.56
2023-05-01T23:00:39.305Z,62.16
2023-05-01T23:04:02.283Z,61.96
2023-05-01T23:07:42.514Z,62.39
2023-05-01T23:11:41.084Z,62.70
2023-05-01T23:15:21.624Z,63.38
2023-05-01T23:18:43.073Z,63.49
2023-05-01T23:22:07.151Z,63.80
2023-05-01T23:25:30.128Z,64.81
2023-05-01T23:29:16.130Z,64.29
2023-05-01T23:32:58.574Z,64.68
2023-05-01T23:36:23.495Z,64.89
2023-05-01T23:39:30.701Z,65.10
2023-05-01T23:42:49.278Z,65.13
2023-05-01T23:46:07.212Z,65.44
2023-05-01T23:49:51.196Z,65.67
2023-05-01T23:53:14.340Z,66.09
2023-05-01T23:56:29.611Z,66.98
2023-05-01T23:59:57.879Z,66.76
